sensor_id;sensor_type;location;lat;lon;timestamp;temperature;humidity
41876;DHT22;27555;50.808;4.402;2023-02-15T00:00:30;6.10;99.90
41876;DHT22;27555;50.808;4.402;2023-02-15T00:02:56;6.00;99.90
41876;DHT22;27555;50.808;4.402;2023-02-15T00:05:22;5.80;99.90
41876;DHT22;27555;50.808;4.402;2023-02-15T00:07:47;5.90;99.90
41876;DHT22;27555;50.808;4.402;2023-02-15T00:10:13;5.90;99.90
41876;DHT22;27555;50.808;4.402;2023-02-15T00:12:39;5.90;99.90
41876;DHT22;27555;50.808;4.402;2023-02-15T00:15:05;5.80;99.90
41876;DHT22;27555;50.808;4.402;2023-02-15T00:17:30;5.90;99.90
41876;DHT22;27555;50.808;4.402;2023-02-15T00:19:56;5.80;99.90
41876;DHT22;27555;50.808;4.402;2023-02-15T00:22:22;5.80;99.90
41876;DHT22;27555;50.808;4.402;2023-02-15T00:24:47;5.70;99.90
41876;DHT22;27555;50.808;4.402;2023-02-15T00:27:13;5.70;99.90
41876;DHT22;27555;50.808;4.402;2023-02-15T00:29:41;5.70;99.90
41876;DHT22;27555;50.808;4.402;2023-02-15T00:32:08;5.70;99.90
41876;DHT22;27555;50.808;4.402;2023-02-15T00:34:34;5.60;99.90
41876;DHT22;27555;50.808;4.402;2023-02-15T00:36:59;5.60;99.90
41876;DHT22;27555;50.808;4.402;2023-02-15T00:39:25;5.70;99.90
41876;DHT22;27555;50.808;4.402;2023-02-15T00:41:52;5.70;99.90
41876;DHT22;27555;50.808;4.402;2023-02-15T00:44:18;5.60;99.90
41876;DHT22;27555;50.808;4.402;2023-02-15T00:46:45;5.60;99.90
41876;DHT22;27555;50.808;4.402;2023-02-15T00:49:12;5.50;99.90
41876;DHT22;27555;50.808;4.402;2023-02-15T00:51:39;5.50;99.90
41876;DHT22;27555;50.808;4.402;2023-02-15T00:54:06;5.50;99.90
41876;DHT22;27555;50.808;4.402;2023-02-15T00:56:32;5.50;99.90
41876;DHT22;27555;50.808;4.402;2023-02-15T00:58:57;5.40;99.90
41876;DHT22;27555;50.808;4.402;2023-02-15T01:01:23;5.40;99.90
41876;DHT22;27555;50.808;4.402;2023-02-15T01:03:49;5.50;99.90
41876;DHT22;27555;50.808;4.402;2023-02-15T01:06:15;5.40;99.90
41876;DHT22;27555;50.808;4.402;2023-02-15T01:08:43;5.40;99.90
41876;DHT22;27555;50.808;4.402;2023-02-15T01:11:16;5.40;99.90
41876;DHT22;27555;50.808;4.402;2023-02-15T01:13:51;5.40;99.90
41876;DHT22;27555;50.808;4.402;2023-02-15T01:16:17;5.30;99.90
41876;DHT22;27555;50.808;4.402;2023-02-15T01:18:43;5.30;99.90
41876;DHT22;27555;50.808;4.402;2023-02-15T01:21:11;5.30;99.90
41876;DHT22;27555;50.808;4.402;2023-02-15T01:23:36;5.20;99.90
41876;DHT22;27555;50.808;4.402;2023-02-15T01:26:02;5.10;99.90
41876;DHT22;27555;50.808;4.402;2023-02-15T01:28:28;5.10;99.90
41876;DHT22;27555;50.808;4.402;2023-02-15T01:30:54;5.20;99.90
41876;DHT22;27555;50.808;4.402;2023-02-15T01:33:19;5.20;99.90
41876;DHT22;27555;50.808;4.402;2023-02-15T01:35:45;5.10;99.90
41876;DHT22;27555;50.808;4.402;2023-02-15T01:38:12;5.20;99.90
41876;DHT22;27555;50.808;4.402;2023-02-15T01:40:38;5.20;99.90
41876;DHT22;27555;50.808;4.402;2023-02-15T01:43:12;5.20;99.90
41876;DHT22;27555;50.808;4.402;2023-02-15T01:45:38;5.00;99.90
41876;DHT22;27555;50.808;4.402;2023-02-15T01:48:05;5.00;99.90
41876;DHT22;27555;50.808;4.402;2023-02-15T01:50:56;5.00;99.90
41876;DHT22;27555;50.808;4.402;2023-02-15T01:53:50;5.00;99.90
41876;DHT22;27555;50.808;4.402;2023-02-15T01:56:26;5.00;99.90
41876;DHT22;27555;50.808;4.402;2023-02-15T01:58:56;5.00;99.90
41876;DHT22;27555;50.808;4.402;2023-02-15T02:01:25;5.00;99.90
41876;DHT22;27555;50.808;4.402;2023-02-15T02:04:09;5.00;99.90
41876;DHT22;27555;50.808;4.402;2023-02-15T02:06:37;5.00;99.90
41876;DHT22;27555;50.808;4.402;2023-02-15T02:09:04;5.00;99.90
41876;DHT22;27555;50.808;4.402;2023-02-15T02:11:30;5.00;99.90
41876;DHT22;27555;50.808;4.402;2023-02-15T02:13:56;5.00;99.90
41876;DHT22;27555;50.808;4.402;2023-02-15T02:16:45;5.00;99.90
41876;DHT22;27555;50.808;4.402;2023-02-15T02:22:02;4.90;99.90
41876;DHT22;27555;50.808;4.402;2023-02-15T02:24:59;4.80;99.90
41876;DHT22;27555;50.808;4.402;2023-02-15T02:27:43;4.80;99.90
41876;DHT22;27555;50.808;4.402;2023-02-15T02:38:38;4.70;99.90
41876;DHT22;27555;50.808;4.402;2023-02-15T02:47:04;4.70;99.90
41876;DHT22;27555;50.808;4.402;2023-02-15T02:49:52;4.70;99.90
41876;DHT22;27555;50.808;4.402;2023-02-15T02:52:39;4.60;99.90
41876;DHT22;27555;50.808;4.402;2023-02-15T02:55:29;4.50;99.90
41876;DHT22;27555;50.808;4.402;2023-02-15T02:58:09;4.50;99.90
41876;DHT22;27555;50.808;4.402;2023-02-15T03:00:43;4.60;99.90
41876;DHT22;27555;50.808;4.402;2023-02-15T03:03:14;4.60;99.90
41876;DHT22;27555;50.808;4.402;2023-02-15T03:05:46;4.60;99.90
41876;DHT22;27555;50.808;4.402;2023-02-15T03:08:14;4.50;99.90
41876;DHT22;27555;50.808;4.402;2023-02-15T03:10:48;4.60;99.90
41876;DHT22;27555;50.808;4.402;2023-02-15T03:13:17;4.50;99.90
41876;DHT22;27555;50.808;4.402;2023-02-15T03:15:44;4.60;99.90
41876;DHT22;27555;50.808;4.402;2023-02-15T03:18:35;4.50;99.90
41876;DHT22;27555;50.808;4.402;2023-02-15T03:21:02;4.50;99.90
41876;DHT22;27555;50.808;4.402;2023-02-15T03:23:30;4.40;99.90
41876;DHT22;27555;50.808;4.402;2023-02-15T03:26:03;4.40;99.90
41876;DHT22;27555;50.808;4.402;2023-02-15T03:28:42;4.50;99.90
41876;DHT22;27555;50.808;4.402;2023-02-15T03:31:11;4.40;99.90
41876;DHT22;27555;50.808;4.402;2023-02-15T03:33:42;4.40;99.90
41876;DHT22;27555;50.808;4.402;2023-02-15T03:36:42;4.40;99.90
41876;DHT22;27555;50.808;4.402;2023-02-15T03:39:18;4.50;99.90
41876;DHT22;27555;50.808;4.402;2023-02-15T03:45:05;4.30;99.90
41876;DHT22;27555;50.808;4.402;2023-02-15T03:47:37;4.30;99.90
41876;DHT22;27555;50.808;4.402;2023-02-15T03:50:08;4.20;99.90
41876;DHT22;27555;50.808;4.402;2023-02-15T03:52:58;4.30;99.90
41876;DHT22;27555;50.808;4.402;2023-02-15T03:55:25;4.20;99.90
41876;DHT22;27555;50.808;4.402;2023-02-15T03:57:51;4.30;99.90
41876;DHT22;27555;50.808;4.402;2023-02-15T04:00:42;4.20;99.90
41876;DHT22;27555;50.808;4.402;2023-02-15T04:03:39;4.20;99.90
41876;DHT22;27555;50.808;4.402;2023-02-15T04:06:06;4.10;99.90
41876;DHT22;27555;50.808;4.402;2023-02-15T04:08:32;4.10;99.90
41876;DHT22;27555;50.808;4.402;2023-02-15T04:11:16;4.10;99.90
41876;DHT22;27555;50.808;4.402;2023-02-15T04:13:42;4.20;99.90
41876;DHT22;27555;50.808;4.402;2023-02-15T04:16:09;4.20;99.90
41876;DHT22;27555;50.808;4.402;2023-02-15T04:18:40;4.20;99.90
41876;DHT22;27555;50.808;4.402;2023-02-15T04:21:25;4.10;99.90
41876;DHT22;27555;50.808;4.402;2023-02-15T04:24:11;4.10;99.90
41876;DHT22;27555;50.808;4.402;2023-02-15T04:26:56;4.00;99.90
41876;DHT22;27555;50.808;4.402;2023-02-15T04:29:23;4.00;99.90
41876;DHT22;27555;50.808;4.402;2023-02-15T04:31:51;4.00;99.90
41876;DHT22;27555;50.808;4.402;2023-02-15T04:34:18;4.10;99.90
41876;DHT22;27555;50.808;4.402;2023-02-15T04:36:45;4.00;99.90
41876;DHT22;27555;50.808;4.402;2023-02-15T04:39:13;4.10;99.90
41876;DHT22;27555;50.808;4.402;2023-02-15T04:41:43;4.10;99.90
41876;DHT22;27555;50.808;4.402;2023-02-15T04:44:09;4.10;99.90
41876;DHT22;27555;50.808;4.402;2023-02-15T04:46:34;4.00;99.90
41876;DHT22;27555;50.808;4.402;2023-02-15T04:49:00;3.90;99.90
41876;DHT22;27555;50.808;4.402;2023-02-15T04:51:26;4.00;99.90
41876;DHT22;27555;50.808;4.402;2023-02-15T04:53:52;4.00;99.90
41876;DHT22;27555;50.808;4.402;2023-02-15T04:56:19;4.00;99.90
41876;DHT22;27555;50.808;4.402;2023-02-15T04:58:44;4.00;99.90
41876;DHT22;27555;50.808;4.402;2023-02-15T05:01:10;4.00;99.90
41876;DHT22;27555;50.808;4.402;2023-02-15T05:03:36;4.00;99.90
41876;DHT22;27555;50.808;4.402;2023-02-15T05:06:03;4.00;99.90
41876;DHT22;27555;50.808;4.402;2023-02-15T05:08:30;4.00;99.90
41876;DHT22;27555;50.808;4.402;2023-02-15T05:10:58;3.90;99.90
41876;DHT22;27555;50.808;4.402;2023-02-15T05:13:23;3.90;99.90
41876;DHT22;27555;50.808;4.402;2023-02-15T05:15:50;3.90;99.90
41876;DHT22;27555;50.808;4.402;2023-02-15T05:18:21;3.80;99.90
41876;DHT22;27555;50.808;4.402;2023-02-15T05:20:47;3.80;99.90
41876;DHT22;27555;50.808;4.402;2023-02-15T05:23:13;3.90;99.90
41876;DHT22;27555;50.808;4.402;2023-02-15T05:25:39;3.80;99.90
41876;DHT22;27555;50.808;4.402;2023-02-15T05:28:26;3.80;99.90
41876;DHT22;27555;50.808;4.402;2023-02-15T05:31:24;3.80;99.90
41876;DHT22;27555;50.808;4.402;2023-02-15T05:33:50;3.90;99.90
41876;DHT22;27555;50.808;4.402;2023-02-15T05:36:17;3.90;99.90
41876;DHT22;27555;50.808;4.402;2023-02-15T05:38:42;3.80;99.90
41876;DHT22;27555;50.808;4.402;2023-02-15T05:41:13;3.80;99.90
41876;DHT22;27555;50.808;4.402;2023-02-15T05:43:39;3.80;99.90
41876;DHT22;27555;50.808;4.402;2023-02-15T05:46:06;3.80;99.90
41876;DHT22;27555;50.808;4.402;2023-02-15T05:48:32;3.80;99.90
41876;DHT22;27555;50.808;4.402;2023-02-15T05:51:01;3.70;99.90
41876;DHT22;27555;50.808;4.402;2023-02-15T05:53:28;3.70;99.90
41876;DHT22;27555;50.808;4.402;2023-02-15T05:55:54;3.70;99.90
41876;DHT22;27555;50.808;4.402;2023-02-15T05:58:26;3.80;99.90
41876;DHT22;27555;50.808;4.402;2023-02-15T06:00:52;3.80;99.90
41876;DHT22;27555;50.808;4.402;2023-02-15T06:03:18;3.70;99.90
41876;DHT22;27555;50.808;4.402;2023-02-15T06:05:44;3.70;99.90
41876;DHT22;27555;50.808;4.402;2023-02-15T06:08:10;3.70;99.90
41876;DHT22;27555;50.808;4.402;2023-02-15T06:10:36;3.60;99.90
41876;DHT22;27555;50.808;4.402;2023-02-15T06:13:02;3.60;99.90
41876;DHT22;27555;50.808;4.402;2023-02-15T06:15:29;3.70;99.90
41876;DHT22;27555;50.808;4.402;2023-02-15T06:17:54;3.80;99.90
41876;DHT22;27555;50.808;4.402;2023-02-15T06:20:21;3.80;99.90
41876;DHT22;27555;50.808;4.402;2023-02-15T06:22:47;3.70;99.90
41876;DHT22;27555;50.808;4.402;2023-02-15T06:25:13;3.70;99.90
41876;DHT22;27555;50.808;4.402;2023-02-15T06:27:42;3.60;99.90
41876;DHT22;27555;50.808;4.402;2023-02-15T06:30:14;3.60;99.90
41876;DHT22;27555;50.808;4.402;2023-02-15T06:32:40;3.60;99.90
41876;DHT22;27555;50.808;4.402;2023-02-15T06:35:06;3.60;99.90
41876;DHT22;27555;50.808;4.402;2023-02-15T06:37:32;3.60;99.90
41876;DHT22;27555;50.808;4.402;2023-02-15T06:39:58;3.70;99.90
41876;DHT22;27555;50.808;4.402;2023-02-15T06:42:24;3.60;99.90
41876;DHT22;27555;50.808;4.402;2023-02-15T06:44:50;3.60;99.90
41876;DHT22;27555;50.808;4.402;2023-02-15T06:47:16;3.70;99.90
41876;DHT22;27555;50.808;4.402;2023-02-15T06:49:41;3.70;99.90
41876;DHT22;27555;50.808;4.402;2023-02-15T06:52:07;3.70;99.90
41876;DHT22;27555;50.808;4.402;2023-02-15T06:54:33;3.70;99.90
41876;DHT22;27555;50.808;4.402;2023-02-15T06:56:58;3.60;99.90
41876;DHT22;27555;50.808;4.402;2023-02-15T06:59:24;3.60;99.90
41876;DHT22;27555;50.808;4.402;2023-02-15T07:01:49;3.60;99.90
41876;DHT22;27555;50.808;4.402;2023-02-15T07:04:15;3.70;99.90
41876;DHT22;27555;50.808;4.402;2023-02-15T07:06:41;3.60;99.90
41876;DHT22;27555;50.808;4.402;2023-02-15T07:09:06;3.80;99.90
41876;DHT22;27555;50.808;4.402;2023-02-15T07:11:32;3.70;99.90
41876;DHT22;27555;50.808;4.402;2023-02-15T07:14:16;3.70;99.90
41876;DHT22;27555;50.808;4.402;2023-02-15T07:16:42;3.80;99.90
41876;DHT22;27555;50.808;4.402;2023-02-15T07:19:08;3.90;99.90
41876;DHT22;27555;50.808;4.402;2023-02-15T07:21:34;3.90;99.90
41876;DHT22;27555;50.808;4.402;2023-02-15T07:24:00;4.00;99.90
41876;DHT22;27555;50.808;4.402;2023-02-15T07:26:26;4.10;99.90
41876;DHT22;27555;50.808;4.402;2023-02-15T07:28:52;4.10;99.90
41876;DHT22;27555;50.808;4.402;2023-02-15T07:31:17;4.20;99.90
41876;DHT22;27555;50.808;4.402;2023-02-15T07:33:43;4.20;99.90
41876;DHT22;27555;50.808;4.402;2023-02-15T07:36:09;4.30;99.90
41876;DHT22;27555;50.808;4.402;2023-02-15T07:38:38;4.40;99.90
41876;DHT22;27555;50.808;4.402;2023-02-15T07:41:07;4.50;99.90
41876;DHT22;27555;50.808;4.402;2023-02-15T07:43:35;4.50;99.90
41876;DHT22;27555;50.808;4.402;2023-02-15T07:46:06;4.70;99.90
41876;DHT22;27555;50.808;4.402;2023-02-15T07:48:33;4.90;99.90
41876;DHT22;27555;50.808;4.402;2023-02-15T07:51:00;5.10;99.90
41876;DHT22;27555;50.808;4.402;2023-02-15T07:53:26;5.20;99.90
41876;DHT22;27555;50.808;4.402;2023-02-15T07:55:52;5.50;99.90
41876;DHT22;27555;50.808;4.402;2023-02-15T07:58:18;5.90;99.90
41876;DHT22;27555;50.808;4.402;2023-02-15T08:00:44;6.30;99.90
41876;DHT22;27555;50.808;4.402;2023-02-15T08:03:23;6.60;99.90
41876;DHT22;27555;50.808;4.402;2023-02-15T08:05:56;7.20;99.90
41876;DHT22;27555;50.808;4.402;2023-02-15T08:08:23;7.30;99.90
41876;DHT22;27555;50.808;4.402;2023-02-15T08:13:51;8.10;99.10
41876;DHT22;27555;50.808;4.402;2023-02-15T08:16:24;8.70;98.90
41876;DHT22;27555;50.808;4.402;2023-02-15T08:18:51;9.30;98.10
41876;DHT22;27555;50.808;4.402;2023-02-15T08:21:18;9.70;97.60
41876;DHT22;27555;50.808;4.402;2023-02-15T08:23:43;10.00;96.90
41876;DHT22;27555;50.808;4.402;2023-02-15T08:26:09;10.50;96.40
41876;DHT22;27555;50.808;4.402;2023-02-15T08:28:35;10.90;95.90
41876;DHT22;27555;50.808;4.402;2023-02-15T08:31:08;11.30;95.40
41876;DHT22;27555;50.808;4.402;2023-02-15T08:33:35;11.50;95.10
41876;DHT22;27555;50.808;4.402;2023-02-15T08:36:08;11.80;94.80
41876;DHT22;27555;50.808;4.402;2023-02-15T08:38:35;12.10;94.50
41876;DHT22;27555;50.808;4.402;2023-02-15T08:41:13;12.50;94.30
41876;DHT22;27555;50.808;4.402;2023-02-15T08:43:40;12.70;94.10
41876;DHT22;27555;50.808;4.402;2023-02-15T08:46:07;12.90;93.90
41876;DHT22;27555;50.808;4.402;2023-02-15T08:48:32;12.80;93.60
41876;DHT22;27555;50.808;4.402;2023-02-15T08:50:58;12.90;93.70
41876;DHT22;27555;50.808;4.402;2023-02-15T08:53:29;13.40;93.60
41876;DHT22;27555;50.808;4.402;2023-02-15T08:55:58;13.80;93.20
41876;DHT22;27555;50.808;4.402;2023-02-15T08:58:24;14.10;92.90
41876;DHT22;27555;50.808;4.402;2023-02-15T09:00:51;14.30;92.80
41876;DHT22;27555;50.808;4.402;2023-02-15T09:03:17;14.90;92.60
41876;DHT22;27555;50.808;4.402;2023-02-15T09:05:42;15.00;91.20
41876;DHT22;27555;50.808;4.402;2023-02-15T09:08:08;14.60;91.60
41876;DHT22;27555;50.808;4.402;2023-02-15T09:10:33;14.50;91.00
41876;DHT22;27555;50.808;4.402;2023-02-15T09:12:59;14.10;90.60
41876;DHT22;27555;50.808;4.402;2023-02-15T09:15:24;13.90;91.10
41876;DHT22;27555;50.808;4.402;2023-02-15T09:17:50;14.10;90.70
41876;DHT22;27555;50.808;4.402;2023-02-15T09:20:16;14.10;90.70
41876;DHT22;27555;50.808;4.402;2023-02-15T09:22:42;14.20;91.10
41876;DHT22;27555;50.808;4.402;2023-02-15T09:25:07;14.60;90.30
41876;DHT22;27555;50.808;4.402;2023-02-15T09:27:33;15.00;89.60
41876;DHT22;27555;50.808;4.402;2023-02-15T09:29:58;15.70;88.80
41876;DHT22;27555;50.808;4.402;2023-02-15T09:32:24;16.40;87.20
41876;DHT22;27555;50.808;4.402;2023-02-15T09:34:50;17.10;85.30
41876;DHT22;27555;50.808;4.402;2023-02-15T09:37:15;17.50;84.70
41876;DHT22;27555;50.808;4.402;2023-02-15T09:39:42;17.90;82.80
41876;DHT22;27555;50.808;4.402;2023-02-15T09:48:23;18.40;81.30
41876;DHT22;27555;50.808;4.402;2023-02-15T09:51:09;18.40;81.60
41876;DHT22;27555;50.808;4.402;2023-02-15T09:56:37;18.10;81.20
41876;DHT22;27555;50.808;4.402;2023-02-15T10:02:44;18.00;80.50
41876;DHT22;27555;50.808;4.402;2023-02-15T10:05:29;18.00;81.40
41876;DHT22;27555;50.808;4.402;2023-02-15T10:11:27;18.40;79.70
41876;DHT22;27555;50.808;4.402;2023-02-15T10:14:30;18.70;79.70
41876;DHT22;27555;50.808;4.402;2023-02-15T10:18:09;18.90;79.60
41876;DHT22;27555;50.808;4.402;2023-02-15T10:20:34;18.90;79.90
41876;DHT22;27555;50.808;4.402;2023-02-15T10:26:27;18.60;79.70
41876;DHT22;27555;50.808;4.402;2023-02-15T10:31:43;19.10;78.70
41876;DHT22;27555;50.808;4.402;2023-02-15T10:42:45;16.40;81.90
41876;DHT22;27555;50.808;4.402;2023-02-15T10:48:06;15.80;83.50
41876;DHT22;27555;50.808;4.402;2023-02-15T10:50:49;15.50;84.70
41876;DHT22;27555;50.808;4.402;2023-02-15T10:53:48;16.70;82.90
41876;DHT22;27555;50.808;4.402;2023-02-15T11:02:35;19.00;79.60
41876;DHT22;27555;50.808;4.402;2023-02-15T11:05:29;19.70;78.10
41876;DHT22;27555;50.808;4.402;2023-02-15T11:08:00;19.50;78.20
41876;DHT22;27555;50.808;4.402;2023-02-15T11:10:54;19.30;78.60
41876;DHT22;27555;50.808;4.402;2023-02-15T11:13:24;19.40;77.90
41876;DHT22;27555;50.808;4.402;2023-02-15T11:15:56;18.90;78.70
41876;DHT22;27555;50.808;4.402;2023-02-15T11:18:35;18.80;79.10
41876;DHT22;27555;50.808;4.402;2023-02-15T11:22:05;18.50;79.00
41876;DHT22;27555;50.808;4.402;2023-02-15T11:24:12;18.00;80.10
41876;DHT22;27555;50.808;4.402;2023-02-15T11:26:57;17.10;81.60
41876;DHT22;27555;50.808;4.402;2023-02-15T11:37:36;18.20;81.20
41876;DHT22;27555;50.808;4.402;2023-02-15T11:40:03;18.90;79.90
41876;DHT22;27555;50.808;4.402;2023-02-15T11:42:37;19.20;79.40
41876;DHT22;27555;50.808;4.402;2023-02-15T11:45:26;19.10;79.40
41876;DHT22;27555;50.808;4.402;2023-02-15T11:47:53;19.00;79.60
41876;DHT22;27555;50.808;4.402;2023-02-15T11:50:28;18.80;80.00
41876;DHT22;27555;50.808;4.402;2023-02-15T11:53:00;18.60;80.20
41876;DHT22;27555;50.808;4.402;2023-02-15T11:55:28;18.50;80.60
41876;DHT22;27555;50.808;4.402;2023-02-15T12:01:29;17.90;81.60
41876;DHT22;27555;50.808;4.402;2023-02-15T12:04:06;18.30;81.20
41876;DHT22;27555;50.808;4.402;2023-02-15T12:06:37;18.70;81.30
41876;DHT22;27555;50.808;4.402;2023-02-15T12:11:48;18.70;80.90
41876;DHT22;27555;50.808;4.402;2023-02-15T12:14:14;18.20;81.50
41876;DHT22;27555;50.808;4.402;2023-02-15T12:16:50;17.70;82.50
41876;DHT22;27555;50.808;4.402;2023-02-15T12:21:52;17.40;83.60
41876;DHT22;27555;50.808;4.402;2023-02-15T12:24:22;17.40;83.60
41876;DHT22;27555;50.808;4.402;2023-02-15T12:29:27;17.00;84.30
41876;DHT22;27555;50.808;4.402;2023-02-15T12:31:55;17.00;84.40
41876;DHT22;27555;50.808;4.402;2023-02-15T12:36:54;17.60;83.90
41876;DHT22;27555;50.808;4.402;2023-02-15T12:39:25;18.10;83.40
41876;DHT22;27555;50.808;4.402;2023-02-15T12:44:28;18.90;81.90
41876;DHT22;27555;50.808;4.402;2023-02-15T12:49:42;19.80;80.90
41876;DHT22;27555;50.808;4.402;2023-02-15T12:54:46;20.10;79.70
41876;DHT22;27555;50.808;4.402;2023-02-15T12:57:25;20.30;79.60
41876;DHT22;27555;50.808;4.402;2023-02-15T12:59:57;20.30;79.20
41876;DHT22;27555;50.808;4.402;2023-02-15T13:02:44;19.80;79.70
41876;DHT22;27555;50.808;4.402;2023-02-15T13:05:37;19.50;80.50
41876;DHT22;27555;50.808;4.402;2023-02-15T13:10:39;19.30;81.20
41876;DHT22;27555;50.808;4.402;2023-02-15T13:13:16;19.20;81.40
41876;DHT22;27555;50.808;4.402;2023-02-15T13:15:48;19.10;81.30
41876;DHT22;27555;50.808;4.402;2023-02-15T13:18:18;18.60;82.20
41876;DHT22;27555;50.808;4.402;2023-02-15T13:20:46;18.10;82.90
41876;DHT22;27555;50.808;4.402;2023-02-15T13:23:32;17.70;83.90
41876;DHT22;27555;50.808;4.402;2023-02-15T13:25:59;17.20;85.20
41876;DHT22;27555;50.808;4.402;2023-02-15T13:28:38;17.00;85.70
41876;DHT22;27555;50.808;4.402;2023-02-15T13:31:13;16.90;85.70
41876;DHT22;27555;50.808;4.402;2023-02-15T13:33:44;16.90;85.50
41876;DHT22;27555;50.808;4.402;2023-02-15T13:52:26;15.60;89.10
41876;DHT22;27555;50.808;4.402;2023-02-15T14:01:20;15.80;89.20
41876;DHT22;27555;50.808;4.402;2023-02-15T14:10:09;15.70;90.00
41876;DHT22;27555;50.808;4.402;2023-02-15T14:15:38;15.80;89.40
41876;DHT22;27555;50.808;4.402;2023-02-15T14:18:12;15.90;89.30
41876;DHT22;27555;50.808;4.402;2023-02-15T14:31:58;15.60;89.40
41876;DHT22;27555;50.808;4.402;2023-02-15T14:37:03;15.70;89.40
41876;DHT22;27555;50.808;4.402;2023-02-15T14:42:39;15.30;90.30
41876;DHT22;27555;50.808;4.402;2023-02-15T14:47:44;15.40;90.20
41876;DHT22;27555;50.808;4.402;2023-02-15T14:53:32;15.10;90.10
41876;DHT22;27555;50.808;4.402;2023-02-15T15:01:28;14.60;90.90
41876;DHT22;27555;50.808;4.402;2023-02-15T15:03:58;14.50;90.90
41876;DHT22;27555;50.808;4.402;2023-02-15T15:06:33;14.50;91.10
41876;DHT22;27555;50.808;4.402;2023-02-15T15:09:18;14.20;91.40
41876;DHT22;27555;50.808;4.402;2023-02-15T15:11:52;14.40;91.50
41876;DHT22;27555;50.808;4.402;2023-02-15T15:17:00;14.60;91.40
41876;DHT22;27555;50.808;4.402;2023-02-15T15:22:31;14.70;91.40
41876;DHT22;27555;50.808;4.402;2023-02-15T15:27:38;14.60;91.70
41876;DHT22;27555;50.808;4.402;2023-02-15T15:32:57;14.50;91.80
41876;DHT22;27555;50.808;4.402;2023-02-15T15:35:27;14.40;92.10
41876;DHT22;27555;50.808;4.402;2023-02-15T15:40:55;14.40;92.20
41876;DHT22;27555;50.808;4.402;2023-02-15T15:46:50;14.00;92.70
41876;DHT22;27555;50.808;4.402;2023-02-15T15:49:21;14.20;92.60
41876;DHT22;27555;50.808;4.402;2023-02-15T15:51:48;14.20;92.60
41876;DHT22;27555;50.808;4.402;2023-02-15T15:54:23;14.00;92.90
41876;DHT22;27555;50.808;4.402;2023-02-15T15:56:58;13.90;93.10
41876;DHT22;27555;50.808;4.402;2023-02-15T15:59:30;13.90;93.10
41876;DHT22;27555;50.808;4.402;2023-02-15T16:02:04;13.90;93.20
41876;DHT22;27555;50.808;4.402;2023-02-15T16:04:32;13.90;93.20
41876;DHT22;27555;50.808;4.402;2023-02-15T16:09:41;13.90;93.20
41876;DHT22;27555;50.808;4.402;2023-02-15T16:12:14;13.80;93.40
41876;DHT22;27555;50.808;4.402;2023-02-15T16:14:42;13.80;93.50
41876;DHT22;27555;50.808;4.402;2023-02-15T16:17:22;13.70;93.60
41876;DHT22;27555;50.808;4.402;2023-02-15T16:19:49;13.90;93.50
41876;DHT22;27555;50.808;4.402;2023-02-15T16:22:19;13.70;93.60
41876;DHT22;27555;50.808;4.402;2023-02-15T16:27:25;13.90;93.50
41876;DHT22;27555;50.808;4.402;2023-02-15T16:29:53;13.50;93.80
41876;DHT22;27555;50.808;4.402;2023-02-15T16:32:24;13.20;94.30
41876;DHT22;27555;50.808;4.402;2023-02-15T16:35:01;13.20;94.40
41876;DHT22;27555;50.808;4.402;2023-02-15T16:37:34;13.00;94.60
41876;DHT22;27555;50.808;4.402;2023-02-15T16:40:00;13.10;94.60
41876;DHT22;27555;50.808;4.402;2023-02-15T16:42:26;13.10;94.60
41876;DHT22;27555;50.808;4.402;2023-02-15T16:45:08;13.10;94.70
41876;DHT22;27555;50.808;4.402;2023-02-15T16:47:40;13.10;94.80
41876;DHT22;27555;50.808;4.402;2023-02-15T16:50:32;12.90;94.90
41876;DHT22;27555;50.808;4.402;2023-02-15T16:52:59;12.80;95.10
41876;DHT22;27555;50.808;4.402;2023-02-15T16:55:35;12.70;95.20
41876;DHT22;27555;50.808;4.402;2023-02-15T16:58:02;12.70;95.30
41876;DHT22;27555;50.808;4.402;2023-02-15T17:00:32;12.50;95.50
41876;DHT22;27555;50.808;4.402;2023-02-15T17:03:00;12.40;95.70
41876;DHT22;27555;50.808;4.402;2023-02-15T17:05:44;12.40;95.70
41876;DHT22;27555;50.808;4.402;2023-02-15T17:08:18;12.30;96.00
41876;DHT22;27555;50.808;4.402;2023-02-15T17:11:23;12.30;95.90
41876;DHT22;27555;50.808;4.402;2023-02-15T17:19:22;11.80;96.50
41876;DHT22;27555;50.808;4.402;2023-02-15T17:22:14;11.70;96.60
41876;DHT22;27555;50.808;4.402;2023-02-15T17:27:17;11.50;97.00
41876;DHT22;27555;50.808;4.402;2023-02-15T17:29:46;11.50;97.10
41876;DHT22;27555;50.808;4.402;2023-02-15T17:32:22;11.50;97.10
41876;DHT22;27555;50.808;4.402;2023-02-15T17:42:46;11.40;97.30
41876;DHT22;27555;50.808;4.402;2023-02-15T17:45:11;11.40;97.30
41876;DHT22;27555;50.808;4.402;2023-02-15T17:47:37;11.40;97.70
41876;DHT22;27555;50.808;4.402;2023-02-15T17:50:04;11.40;97.60
41876;DHT22;27555;50.808;4.402;2023-02-15T17:52:30;11.40;97.60
41876;DHT22;27555;50.808;4.402;2023-02-15T17:54:56;11.30;97.80
41876;DHT22;27555;50.808;4.402;2023-02-15T17:57:40;11.40;97.70
41876;DHT22;27555;50.808;4.402;2023-02-15T18:00:07;11.70;97.40
41876;DHT22;27555;50.808;4.402;2023-02-15T18:02:52;11.40;97.70
41876;DHT22;27555;50.808;4.402;2023-02-15T18:05:37;11.30;97.90
41876;DHT22;27555;50.808;4.402;2023-02-15T18:08:25;11.40;97.60
41876;DHT22;27555;50.808;4.402;2023-02-15T18:11:11;11.50;97.60
41876;DHT22;27555;50.808;4.402;2023-02-15T18:13:56;11.40;97.70
41876;DHT22;27555;50.808;4.402;2023-02-15T18:16:28;11.40;97.70
41876;DHT22;27555;50.808;4.402;2023-02-15T18:18:55;11.50;97.40
41876;DHT22;27555;50.808;4.402;2023-02-15T18:21:22;11.40;97.60
41876;DHT22;27555;50.808;4.402;2023-02-15T18:23:48;11.60;97.40
41876;DHT22;27555;50.808;4.402;2023-02-15T18:26:22;11.80;97.30
41876;DHT22;27555;50.808;4.402;2023-02-15T18:28:48;11.50;97.50
41876;DHT22;27555;50.808;4.402;2023-02-15T18:31:14;11.30;97.80
41876;DHT22;27555;50.808;4.402;2023-02-15T18:33:44;11.50;97.70
41876;DHT22;27555;50.808;4.402;2023-02-15T18:36:16;11.60;97.60
41876;DHT22;27555;50.808;4.402;2023-02-15T18:38:43;11.50;97.60
41876;DHT22;27555;50.808;4.402;2023-02-15T18:41:15;11.40;97.60
41876;DHT22;27555;50.808;4.402;2023-02-15T18:43:42;11.40;97.90
41876;DHT22;27555;50.808;4.402;2023-02-15T18:46:07;11.30;98.10
41876;DHT22;27555;50.808;4.402;2023-02-15T18:48:33;11.20;98.20
41876;DHT22;27555;50.808;4.402;2023-02-15T18:50:58;11.00;98.60
41876;DHT22;27555;50.808;4.402;2023-02-15T18:53:24;10.90;98.80
41876;DHT22;27555;50.808;4.402;2023-02-15T18:55:50;10.90;98.80
41876;DHT22;27555;50.808;4.402;2023-02-15T18:58:20;10.90;98.90
41876;DHT22;27555;50.808;4.402;2023-02-15T19:00:49;11.00;98.70
41876;DHT22;27555;50.808;4.402;2023-02-15T19:03:16;11.10;98.70
41876;DHT22;27555;50.808;4.402;2023-02-15T19:05:44;11.00;98.70
41876;DHT22;27555;50.808;4.402;2023-02-15T19:08:21;11.10;98.60
41876;DHT22;27555;50.808;4.402;2023-02-15T19:10:49;11.00;98.70
41876;DHT22;27555;50.808;4.402;2023-02-15T19:13:15;11.00;98.70
41876;DHT22;27555;50.808;4.402;2023-02-15T19:15:42;11.00;98.70